sensor_id;sensor_type;location;lat;lon;timestamp;temperature;humidity
24250;DHT22;12379;49.820;8.648;2023-07-16T00:01:03;21.50;99.90
24250;DHT22;12379;49.820;8.648;2023-07-16T00:03:29;21.40;99.90
24250;DHT22;12379;49.820;8.648;2023-07-16T00:05:54;21.40;99.90
24250;DHT22;12379;49.820;8.648;2023-07-16T00:08:22;21.40;99.90
24250;DHT22;12379;49.820;8.648;2023-07-16T00:10:47;21.30;99.90
24250;DHT22;12379;49.820;8.648;2023-07-16T00:13:13;21.30;99.90
24250;DHT22;12379;49.820;8.648;2023-07-16T00:15:38;21.30;99.90
24250;DHT22;12379;49.820;8.648;2023-07-16T00:18:04;21.30;99.90
24250;DHT22;12379;49.820;8.648;2023-07-16T00:20:31;21.20;99.90
24250;DHT22;12379;49.820;8.648;2023-07-16T00:22:57;21.10;99.90
24250;DHT22;12379;49.820;8.648;2023-07-16T00:25:23;21.10;99.90
24250;DHT22;12379;49.820;8.648;2023-07-16T00:27:48;21.10;99.90
24250;DHT22;12379;49.820;8.648;2023-07-16T00:30:14;21.10;99.90
24250;DHT22;12379;49.820;8.648;2023-07-16T00:32:39;21.10;99.90
24250;DHT22;12379;49.820;8.648;2023-07-16T00:35:05;21.10;99.90
24250;DHT22;12379;49.820;8.648;2023-07-16T00:37:31;21.20;99.90
24250;DHT22;12379;49.820;8.648;2023-07-16T00:39:56;21.20;99.90
24250;DHT22;12379;49.820;8.648;2023-07-16T00:42:22;21.20;99.90
24250;DHT22;12379;49.820;8.648;2023-07-16T00:44:48;21.20;99.90
24250;DHT22;12379;49.820;8.648;2023-07-16T00:47:13;21.10;99.90
24250;DHT22;12379;49.820;8.648;2023-07-16T00:49:39;21.00;99.90
24250;DHT22;12379;49.820;8.648;2023-07-16T00:52:05;20.90;99.90
24250;DHT22;12379;49.820;8.648;2023-07-16T00:54:32;20.90;99.90
24250;DHT22;12379;49.820;8.648;2023-07-16T00:56:58;20.90;99.90
24250;DHT22;12379;49.820;8.648;2023-07-16T00:59:24;21.00;99.90
24250;DHT22;12379;49.820;8.648;2023-07-16T01:01:49;21.00;99.90
24250;DHT22;12379;49.820;8.648;2023-07-16T01:04:15;20.80;99.90
24250;DHT22;12379;49.820;8.648;2023-07-16T01:06:47;20.70;99.90
24250;DHT22;12379;49.820;8.648;2023-07-16T01:09:19;20.80;99.90
24250;DHT22;12379;49.820;8.648;2023-07-16T01:11:46;20.80;99.90
24250;DHT22;12379;49.820;8.648;2023-07-16T01:14:17;20.80;99.90
24250;DHT22;12379;49.820;8.648;2023-07-16T01:16:43;20.70;99.90
24250;DHT22;12379;49.820;8.648;2023-07-16T01:19:09;20.60;99.90
24250;DHT22;12379;49.820;8.648;2023-07-16T01:30:45;20.30;99.90
24250;DHT22;12379;49.820;8.648;2023-07-16T01:33:12;20.20;99.90
24250;DHT22;12379;49.820;8.648;2023-07-16T01:35:40;20.20;99.90
24250;DHT22;12379;49.820;8.648;2023-07-16T01:38:07;20.20;99.90
24250;DHT22;12379;49.820;8.648;2023-07-16T01:40:33;20.20;99.90
24250;DHT22;12379;49.820;8.648;2023-07-16T01:42:58;20.20;99.90
24250;DHT22;12379;49.820;8.648;2023-07-16T01:45:24;20.10;99.90
24250;DHT22;12379;49.820;8.648;2023-07-16T01:50:45;20.00;99.90
24250;DHT22;12379;49.820;8.648;2023-07-16T01:53:11;19.80;99.90
24250;DHT22;12379;49.820;8.648;2023-07-16T01:55:36;19.80;99.90
24250;DHT22;12379;49.820;8.648;2023-07-16T01:58:02;19.90;99.90
24250;DHT22;12379;49.820;8.648;2023-07-16T02:00:28;20.00;99.90
24250;DHT22;12379;49.820;8.648;2023-07-16T02:02:53;19.90;99.90
24250;DHT22;12379;49.820;8.648;2023-07-16T02:05:19;19.90;99.90
24250;DHT22;12379;49.820;8.648;2023-07-16T02:07:45;19.90;99.90
24250;DHT22;12379;49.820;8.648;2023-07-16T02:10:10;19.90;99.90
24250;DHT22;12379;49.820;8.648;2023-07-16T02:12:36;19.90;99.90
24250;DHT22;12379;49.820;8.648;2023-07-16T02:15:01;19.90;99.90
24250;DHT22;12379;49.820;8.648;2023-07-16T02:17:27;20.00;99.90
24250;DHT22;12379;49.820;8.648;2023-07-16T02:19:52;20.00;99.90
24250;DHT22;12379;49.820;8.648;2023-07-16T02:22:18;20.00;99.90
24250;DHT22;12379;49.820;8.648;2023-07-16T02:24:43;20.00;99.90
24250;DHT22;12379;49.820;8.648;2023-07-16T02:27:09;20.00;99.90
24250;DHT22;12379;49.820;8.648;2023-07-16T02:29:34;19.90;99.90
24250;DHT22;12379;49.820;8.648;2023-07-16T02:32:00;19.90;99.90
24250;DHT22;12379;49.820;8.648;2023-07-16T02:34:27;19.90;99.90
24250;DHT22;12379;49.820;8.648;2023-07-16T02:36:52;19.80;99.90
24250;DHT22;12379;49.820;8.648;2023-07-16T02:39:18;19.70;99.90
24250;DHT22;12379;49.820;8.648;2023-07-16T02:41:43;19.70;99.90
24250;DHT22;12379;49.820;8.648;2023-07-16T02:44:09;19.70;99.90
24250;DHT22;12379;49.820;8.648;2023-07-16T02:46:34;19.70;99.90
24250;DHT22;12379;49.820;8.648;2023-07-16T02:49:01;19.70;99.90
24250;DHT22;12379;49.820;8.648;2023-07-16T02:51:26;19.70;99.90
24250;DHT22;12379;49.820;8.648;2023-07-16T02:53:52;19.50;99.90
24250;DHT22;12379;49.820;8.648;2023-07-16T02:56:18;19.40;99.90
24250;DHT22;12379;49.820;8.648;2023-07-16T02:58:44;19.40;99.90
24250;DHT22;12379;49.820;8.648;2023-07-16T03:01:09;19.30;99.90
24250;DHT22;12379;49.820;8.648;2023-07-16T03:03:35;19.30;99.90
24250;DHT22;12379;49.820;8.648;2023-07-16T03:06:01;19.30;99.90
24250;DHT22;12379;49.820;8.648;2023-07-16T03:08:26;19.40;99.90
24250;DHT22;12379;49.820;8.648;2023-07-16T03:10:55;19.40;99.90
24250;DHT22;12379;49.820;8.648;2023-07-16T03:13:21;19.40;99.90
24250;DHT22;12379;49.820;8.648;2023-07-16T03:15:47;19.40;99.90
24250;DHT22;12379;49.820;8.648;2023-07-16T03:18:12;19.30;99.90
24250;DHT22;12379;49.820;8.648;2023-07-16T03:20:38;19.30;99.90
24250;DHT22;12379;49.820;8.648;2023-07-16T03:23:03;19.30;99.90
24250;DHT22;12379;49.820;8.648;2023-07-16T03:25:29;19.20;99.90
24250;DHT22;12379;49.820;8.648;2023-07-16T03:27:55;19.30;99.90
24250;DHT22;12379;49.820;8.648;2023-07-16T03:30:20;19.20;99.90
24250;DHT22;12379;49.820;8.648;2023-07-16T03:32:46;19.20;99.90
24250;DHT22;12379;49.820;8.648;2023-07-16T03:35:11;19.10;99.90
24250;DHT22;12379;49.820;8.648;2023-07-16T03:37:37;19.10;99.90
24250;DHT22;12379;49.820;8.648;2023-07-16T03:40:16;19.10;99.90
24250;DHT22;12379;49.820;8.648;2023-07-16T03:42:43;19.20;99.90
24250;DHT22;12379;49.820;8.648;2023-07-16T03:45:10;19.20;99.90
24250;DHT22;12379;49.820;8.648;2023-07-16T03:47:36;19.10;99.90
24250;DHT22;12379;49.820;8.648;2023-07-16T03:50:01;19.00;99.90
24250;DHT22;12379;49.820;8.648;2023-07-16T03:52:27;19.10;99.90
24250;DHT22;12379;49.820;8.648;2023-07-16T03:54:54;19.10;99.90
24250;DHT22;12379;49.820;8.648;2023-07-16T03:57:20;19.10;99.90
24250;DHT22;12379;49.820;8.648;2023-07-16T03:59:45;19.10;99.90
24250;DHT22;12379;49.820;8.648;2023-07-16T04:02:11;19.00;99.90
24250;DHT22;12379;49.820;8.648;2023-07-16T04:04:36;19.10;99.90
24250;DHT22;12379;49.820;8.648;2023-07-16T04:07:02;19.10;99.90
24250;DHT22;12379;49.820;8.648;2023-07-16T04:09:27;19.10;99.90
24250;DHT22;12379;49.820;8.648;2023-07-16T04:11:53;19.10;99.90
24250;DHT22;12379;49.820;8.648;2023-07-16T04:14:18;19.10;99.90
24250;DHT22;12379;49.820;8.648;2023-07-16T04:16:44;19.30;99.90
24250;DHT22;12379;49.820;8.648;2023-07-16T04:19:09;19.20;99.90
24250;DHT22;12379;49.820;8.648;2023-07-16T04:21:35;19.30;99.90
24250;DHT22;12379;49.820;8.648;2023-07-16T04:24:02;19.10;99.90
24250;DHT22;12379;49.820;8.648;2023-07-16T04:26:28;19.00;99.90
24250;DHT22;12379;49.820;8.648;2023-07-16T04:28:53;19.10;99.90
24250;DHT22;12379;49.820;8.648;2023-07-16T04:31:19;19.10;99.90
24250;DHT22;12379;49.820;8.648;2023-07-16T04:33:45;19.10;99.90
24250;DHT22;12379;49.820;8.648;2023-07-16T04:36:10;19.00;99.90
24250;DHT22;12379;49.820;8.648;2023-07-16T04:38:36;19.00;99.90
24250;DHT22;12379;49.820;8.648;2023-07-16T04:41:01;18.90;99.90
24250;DHT22;12379;49.820;8.648;2023-07-16T04:43:27;19.00;99.90
24250;DHT22;12379;49.820;8.648;2023-07-16T04:45:52;18.90;99.90
24250;DHT22;12379;49.820;8.648;2023-07-16T04:48:18;18.90;99.90
24250;DHT22;12379;49.820;8.648;2023-07-16T04:50:43;18.90;99.90
24250;DHT22;12379;49.820;8.648;2023-07-16T04:53:09;19.10;99.90
24250;DHT22;12379;49.820;8.648;2023-07-16T04:55:39;19.20;99.90
24250;DHT22;12379;49.820;8.648;2023-07-16T04:58:05;19.20;99.90
24250;DHT22;12379;49.820;8.648;2023-07-16T05:00:34;19.10;99.90
24250;DHT22;12379;49.820;8.648;2023-07-16T05:03:00;19.00;99.90
24250;DHT22;12379;49.820;8.648;2023-07-16T05:05:25;19.00;99.90
24250;DHT22;12379;49.820;8.648;2023-07-16T05:07:51;19.20;99.90
24250;DHT22;12379;49.820;8.648;2023-07-16T05:10:16;19.10;99.90
24250;DHT22;12379;49.820;8.648;2023-07-16T05:12:42;19.30;99.90
24250;DHT22;12379;49.820;8.648;2023-07-16T05:15:08;19.30;99.90
24250;DHT22;12379;49.820;8.648;2023-07-16T05:17:33;19.20;99.90
24250;DHT22;12379;49.820;8.648;2023-07-16T05:19:59;19.20;99.90
24250;DHT22;12379;49.820;8.648;2023-07-16T05:22:25;19.20;99.90
24250;DHT22;12379;49.820;8.648;2023-07-16T05:24:50;19.30;99.90
24250;DHT22;12379;49.820;8.648;2023-07-16T05:27:16;19.30;99.90
24250;DHT22;12379;49.820;8.648;2023-07-16T05:29:41;19.30;99.90
24250;DHT22;12379;49.820;8.648;2023-07-16T05:32:07;19.20;99.90
24250;DHT22;12379;49.820;8.648;2023-07-16T05:34:33;19.20;99.90
24250;DHT22;12379;49.820;8.648;2023-07-16T05:36:59;19.20;99.90
24250;DHT22;12379;49.820;8.648;2023-07-16T05:39:24;19.30;99.90
24250;DHT22;12379;49.820;8.648;2023-07-16T05:41:50;19.40;99.90
24250;DHT22;12379;49.820;8.648;2023-07-16T05:44:15;19.50;99.90
24250;DHT22;12379;49.820;8.648;2023-07-16T05:46:41;19.60;99.90
24250;DHT22;12379;49.820;8.648;2023-07-16T05:49:06;19.70;99.90
24250;DHT22;12379;49.820;8.648;2023-07-16T05:51:32;19.70;99.90
24250;DHT22;12379;49.820;8.648;2023-07-16T05:53:57;19.60;99.90
24250;DHT22;12379;49.820;8.648;2023-07-16T05:56:23;19.90;99.90
24250;DHT22;12379;49.820;8.648;2023-07-16T05:58:48;20.10;99.90
24250;DHT22;12379;49.820;8.648;2023-07-16T06:01:14;20.50;99.90
24250;DHT22;12379;49.820;8.648;2023-07-16T06:03:39;20.80;99.90
24250;DHT22;12379;49.820;8.648;2023-07-16T06:06:05;21.40;99.90
24250;DHT22;12379;49.820;8.648;2023-07-16T06:08:30;22.60;99.90
24250;DHT22;12379;49.820;8.648;2023-07-16T06:10:56;22.90;99.90
24250;DHT22;12379;49.820;8.648;2023-07-16T06:13:21;22.90;99.90
24250;DHT22;12379;49.820;8.648;2023-07-16T06:15:47;23.10;99.90
24250;DHT22;12379;49.820;8.648;2023-07-16T06:18:13;23.60;99.90
24250;DHT22;12379;49.820;8.648;2023-07-16T06:20:38;24.20;99.90
24250;DHT22;12379;49.820;8.648;2023-07-16T06:23:08;24.20;99.90
24250;DHT22;12379;49.820;8.648;2023-07-16T06:25:33;24.60;99.90
24250;DHT22;12379;49.820;8.648;2023-07-16T06:27:59;24.30;99.90
24250;DHT22;12379;49.820;8.648;2023-07-16T06:30:24;24.30;99.90
24250;DHT22;12379;49.820;8.648;2023-07-16T06:32:50;24.60;99.90
24250;DHT22;12379;49.820;8.648;2023-07-16T06:35:15;24.30;99.90
24250;DHT22;12379;49.820;8.648;2023-07-16T06:37:41;24.90;99.90
24250;DHT22;12379;49.820;8.648;2023-07-16T06:40:07;25.10;99.00
24250;DHT22;12379;49.820;8.648;2023-07-16T06:42:32;24.70;99.90
24250;DHT22;12379;49.820;8.648;2023-07-16T06:44:58;25.20;99.90
24250;DHT22;12379;49.820;8.648;2023-07-16T06:47:23;25.40;97.80
24250;DHT22;12379;49.820;8.648;2023-07-16T06:49:49;25.30;98.40
24250;DHT22;12379;49.820;8.648;2023-07-16T06:52:24;25.10;98.80
24250;DHT22;12379;49.820;8.648;2023-07-16T06:54:56;24.70;99.30
24250;DHT22;12379;49.820;8.648;2023-07-16T06:57:24;24.60;98.90
24250;DHT22;12379;49.820;8.648;2023-07-16T06:59:50;24.80;97.90
24250;DHT22;12379;49.820;8.648;2023-07-16T07:02:16;24.90;98.10
24250;DHT22;12379;49.820;8.648;2023-07-16T07:04:42;25.10;97.30
24250;DHT22;12379;49.820;8.648;2023-07-16T07:07:08;25.30;96.30
24250;DHT22;12379;49.820;8.648;2023-07-16T07:09:34;25.10;96.20
24250;DHT22;12379;49.820;8.648;2023-07-16T07:11:59;24.90;96.50
24250;DHT22;12379;49.820;8.648;2023-07-16T07:14:25;24.70;96.80
24250;DHT22;12379;49.820;8.648;2023-07-16T07:16:50;24.60;97.60
24250;DHT22;12379;49.820;8.648;2023-07-16T07:19:16;24.80;96.10
24250;DHT22;12379;49.820;8.648;2023-07-16T07:21:41;24.90;94.80
24250;DHT22;12379;49.820;8.648;2023-07-16T07:24:07;25.20;95.30
24250;DHT22;12379;49.820;8.648;2023-07-16T07:26:33;25.80;94.00
24250;DHT22;12379;49.820;8.648;2023-07-16T07:28:58;26.10;92.90
24250;DHT22;12379;49.820;8.648;2023-07-16T07:31:24;26.20;92.00
24250;DHT22;12379;49.820;8.648;2023-07-16T07:33:49;26.20;92.00
24250;DHT22;12379;49.820;8.648;2023-07-16T07:36:15;26.50;90.50
24250;DHT22;12379;49.820;8.648;2023-07-16T07:38:40;26.30;91.50
24250;DHT22;12379;49.820;8.648;2023-07-16T07:41:06;26.10;90.80
24250;DHT22;12379;49.820;8.648;2023-07-16T07:43:32;25.40;91.50
24250;DHT22;12379;49.820;8.648;2023-07-16T07:45:57;25.50;92.40
24250;DHT22;12379;49.820;8.648;2023-07-16T07:48:23;25.50;90.90
24250;DHT22;12379;49.820;8.648;2023-07-16T07:50:49;24.40;93.40
24250;DHT22;12379;49.820;8.648;2023-07-16T07:53:14;23.90;95.20
24250;DHT22;12379;49.820;8.648;2023-07-16T07:55:40;23.50;96.90
24250;DHT22;12379;49.820;8.648;2023-07-16T07:58:07;23.60;97.90
24250;DHT22;12379;49.820;8.648;2023-07-16T08:00:33;23.50;96.90
24250;DHT22;12379;49.820;8.648;2023-07-16T08:02:58;24.20;95.30
24250;DHT22;12379;49.820;8.648;2023-07-16T08:05:24;24.90;92.40
24250;DHT22;12379;49.820;8.648;2023-07-16T08:07:50;25.40;91.40
24250;DHT22;12379;49.820;8.648;2023-07-16T08:10:15;26.20;89.80
24250;DHT22;12379;49.820;8.648;2023-07-16T08:12:41;26.60;86.00
24250;DHT22;12379;49.820;8.648;2023-07-16T08:15:07;26.90;81.80
24250;DHT22;12379;49.820;8.648;2023-07-16T08:17:34;26.10;83.70
24250;DHT22;12379;49.820;8.648;2023-07-16T08:20:00;25.80;85.90
24250;DHT22;12379;49.820;8.648;2023-07-16T08:22:25;24.90;88.10
24250;DHT22;12379;49.820;8.648;2023-07-16T08:24:51;25.10;87.20
24250;DHT22;12379;49.820;8.648;2023-07-16T08:27:17;25.20;85.60
24250;DHT22;12379;49.820;8.648;2023-07-16T08:29:44;25.60;84.90
24250;DHT22;12379;49.820;8.648;2023-07-16T08:32:09;26.10;83.70
24250;DHT22;12379;49.820;8.648;2023-07-16T08:34:35;26.50;80.50
24250;DHT22;12379;49.820;8.648;2023-07-16T08:37:01;26.70;80.60
24250;DHT22;12379;49.820;8.648;2023-07-16T08:39:26;26.50;80.00
24250;DHT22;12379;49.820;8.648;2023-07-16T08:41:52;26.30;81.00
24250;DHT22;12379;49.820;8.648;2023-07-16T08:44:18;25.50;84.00
24250;DHT22;12379;49.820;8.648;2023-07-16T08:46:46;24.70;86.60
24250;DHT22;12379;49.820;8.648;2023-07-16T08:49:12;24.00;90.40
24250;DHT22;12379;49.820;8.648;2023-07-16T08:51:38;24.00;91.80
24250;DHT22;12379;49.820;8.648;2023-07-16T08:54:04;24.00;92.00
24250;DHT22;12379;49.820;8.648;2023-07-16T08:56:29;23.70;91.80
24250;DHT22;12379;49.820;8.648;2023-07-16T08:58:55;23.70;92.40
24250;DHT22;12379;49.820;8.648;2023-07-16T09:01:21;23.90;92.10
24250;DHT22;12379;49.820;8.648;2023-07-16T09:03:47;25.00;91.80
24250;DHT22;12379;49.820;8.648;2023-07-16T09:06:12;25.40;87.20
24250;DHT22;12379;49.820;8.648;2023-07-16T09:08:38;25.20;87.60
24250;DHT22;12379;49.820;8.648;2023-07-16T09:11:04;24.60;90.20
24250;DHT22;12379;49.820;8.648;2023-07-16T09:13:30;25.00;88.10
24250;DHT22;12379;49.820;8.648;2023-07-16T09:15:57;24.90;87.80
24250;DHT22;12379;49.820;8.648;2023-07-16T09:18:25;25.00;86.40
24250;DHT22;12379;49.820;8.648;2023-07-16T09:21:00;25.00;84.70
24250;DHT22;12379;49.820;8.648;2023-07-16T09:23:30;24.70;82.90
24250;DHT22;12379;49.820;8.648;2023-07-16T09:25:56;25.20;82.00
24250;DHT22;12379;49.820;8.648;2023-07-16T09:28:22;25.70;77.80
24250;DHT22;12379;49.820;8.648;2023-07-16T09:30:48;26.20;74.80
24250;DHT22;12379;49.820;8.648;2023-07-16T09:35:40;27.10;73.00
24250;DHT22;12379;49.820;8.648;2023-07-16T09:38:08;27.50;72.80
24250;DHT22;12379;49.820;8.648;2023-07-16T09:40:36;27.00;71.40
24250;DHT22;12379;49.820;8.648;2023-07-16T09:43:02;27.30;70.80
24250;DHT22;12379;49.820;8.648;2023-07-16T09:45:28;27.30;69.50
24250;DHT22;12379;49.820;8.648;2023-07-16T09:47:54;26.90;69.90
24250;DHT22;12379;49.820;8.648;2023-07-16T09:50:20;27.40;70.10
24250;DHT22;12379;49.820;8.648;2023-07-16T09:52:47;27.60;66.40
24250;DHT22;12379;49.820;8.648;2023-07-16T09:55:13;27.40;66.20
24250;DHT22;12379;49.820;8.648;2023-07-16T09:57:42;27.30;66.50
24250;DHT22;12379;49.820;8.648;2023-07-16T10:00:12;27.50;64.80
24250;DHT22;12379;49.820;8.648;2023-07-16T10:02:39;27.80;65.40
24250;DHT22;12379;49.820;8.648;2023-07-16T10:05:22;27.80;64.40
24250;DHT22;12379;49.820;8.648;2023-07-16T10:07:57;26.70;64.90
24250;DHT22;12379;49.820;8.648;2023-07-16T10:10:45;26.80;64.80
24250;DHT22;12379;49.820;8.648;2023-07-16T10:13:13;26.70;64.50
24250;DHT22;12379;49.820;8.648;2023-07-16T10:15:39;26.90;66.00
24250;DHT22;12379;49.820;8.648;2023-07-16T10:18:05;27.20;62.70
24250;DHT22;12379;49.820;8.648;2023-07-16T10:20:33;26.60;62.50
24250;DHT22;12379;49.820;8.648;2023-07-16T10:23:09;26.50;64.20
24250;DHT22;12379;49.820;8.648;2023-07-16T10:25:36;26.40;64.70
24250;DHT22;12379;49.820;8.648;2023-07-16T10:28:02;26.40;64.90
24250;DHT22;12379;49.820;8.648;2023-07-16T10:30:27;26.70;64.80
24250;DHT22;12379;49.820;8.648;2023-07-16T10:32:53;26.90;63.60
24250;DHT22;12379;49.820;8.648;2023-07-16T10:35:18;26.70;63.60
24250;DHT22;12379;49.820;8.648;2023-07-16T10:37:44;26.50;65.30
24250;DHT22;12379;49.820;8.648;2023-07-16T10:40:11;26.40;65.90
24250;DHT22;12379;49.820;8.648;2023-07-16T10:42:39;26.50;64.10
24250;DHT22;12379;49.820;8.648;2023-07-16T10:45:05;26.40;64.00
24250;DHT22;12379;49.820;8.648;2023-07-16T10:47:34;25.90;64.60
24250;DHT22;12379;49.820;8.648;2023-07-16T10:50:00;25.40;64.50
24250;DHT22;12379;49.820;8.648;2023-07-16T10:52:26;25.40;65.70
24250;DHT22;12379;49.820;8.648;2023-07-16T10:54:52;25.40;65.50
24250;DHT22;12379;49.820;8.648;2023-07-16T10:57:20;25.00;66.40
24250;DHT22;12379;49.820;8.648;2023-07-16T10:59:46;24.90;67.90
24250;DHT22;12379;49.820;8.648;2023-07-16T11:02:22;25.20;66.80
24250;DHT22;12379;49.820;8.648;2023-07-16T11:04:53;25.60;65.10
24250;DHT22;12379;49.820;8.648;2023-07-16T11:07:19;25.70;64.10
24250;DHT22;12379;49.820;8.648;2023-07-16T11:09:47;25.90;65.30
24250;DHT22;12379;49.820;8.648;2023-07-16T11:12:15;25.90;64.30
24250;DHT22;12379;49.820;8.648;2023-07-16T11:14:45;26.10;64.40
24250;DHT22;12379;49.820;8.648;2023-07-16T11:17:12;26.20;61.30
24250;DHT22;12379;49.820;8.648;2023-07-16T11:19:38;26.00;62.10
24250;DHT22;12379;49.820;8.648;2023-07-16T11:22:06;25.90;63.30
24250;DHT22;12379;49.820;8.648;2023-07-16T11:24:43;26.00;62.20
24250;DHT22;12379;49.820;8.648;2023-07-16T11:27:20;25.60;59.80
24250;DHT22;12379;49.820;8.648;2023-07-16T11:29:59;25.40;61.00
24250;DHT22;12379;49.820;8.648;2023-07-16T11:32:42;25.70;60.30
24250;DHT22;12379;49.820;8.648;2023-07-16T11:35:11;25.70;59.80
24250;DHT22;12379;49.820;8.648;2023-07-16T11:37:36;25.70;59.60
24250;DHT22;12379;49.820;8.648;2023-07-16T11:40:07;25.80;60.60
24250;DHT22;12379;49.820;8.648;2023-07-16T11:42:38;26.10;59.20
24250;DHT22;12379;49.820;8.648;2023-07-16T11:45:04;25.80;59.50
24250;DHT22;12379;49.820;8.648;2023-07-16T11:47:31;25.90;60.00
24250;DHT22;12379;49.820;8.648;2023-07-16T11:49:57;26.10;60.10
24250;DHT22;12379;49.820;8.648;2023-07-16T11:52:25;26.10;59.70
24250;DHT22;12379;49.820;8.648;2023-07-16T11:54:52;26.10;58.30
24250;DHT22;12379;49.820;8.648;2023-07-16T11:57:17;26.00;58.30
24250;DHT22;12379;49.820;8.648;2023-07-16T11:59:43;26.10;58.70
24250;DHT22;12379;49.820;8.648;2023-07-16T12:02:09;25.90;57.50
24250;DHT22;12379;49.820;8.648;2023-07-16T12:04:34;25.90;58.70
24250;DHT22;12379;49.820;8.648;2023-07-16T12:07:00;25.90;58.40
24250;DHT22;12379;49.820;8.648;2023-07-16T12:09:25;25.80;59.20
24250;DHT22;12379;49.820;8.648;2023-07-16T12:11:51;26.00;57.40
24250;DHT22;12379;49.820;8.648;2023-07-16T12:14:17;26.10;56.90
24250;DHT22;12379;49.820;8.648;2023-07-16T12:16:42;26.10;57.50
24250;DHT22;12379;49.820;8.648;2023-07-16T12:19:09;26.30;57.10
24250;DHT22;12379;49.820;8.648;2023-07-16T12:21:35;26.30;56.90
24250;DHT22;12379;49.820;8.648;2023-07-16T12:24:00;26.60;56.60
24250;DHT22;12379;49.820;8.648;2023-07-16T12:26:26;26.60;55.80
24250;DHT22;12379;49.820;8.648;2023-07-16T12:28:52;26.70;55.90
24250;DHT22;12379;49.820;8.648;2023-07-16T12:31:18;26.60;56.00
24250;DHT22;12379;49.820;8.648;2023-07-16T12:33:45;26.60;56.40
24250;DHT22;12379;49.820;8.648;2023-07-16T12:36:11;26.40;56.60
24250;DHT22;12379;49.820;8.648;2023-07-16T12:38:37;26.30;56.40
24250;DHT22;12379;49.820;8.648;2023-07-16T12:41:03;26.60;56.50
24250;DHT22;12379;49.820;8.648;2023-07-16T12:43:29;26.50;56.80
24250;DHT22;12379;49.820;8.648;2023-07-16T12:45:54;26.70;57.50
24250;DHT22;12379;49.820;8.648;2023-07-16T12:48:20;26.60;57.40
24250;DHT22;12379;49.820;8.648;2023-07-16T12:50:45;26.70;57.50
24250;DHT22;12379;49.820;8.648;2023-07-16T12:53:11;26.90;55.80
24250;DHT22;12379;49.820;8.648;2023-07-16T12:55:37;27.00;55.00
24250;DHT22;12379;49.820;8.648;2023-07-16T12:58:02;27.00;55.30
24250;DHT22;12379;49.820;8.648;2023-07-16T13:00:28;26.80;55.80
24250;DHT22;12379;49.820;8.648;2023-07-16T13:02:53;26.60;56.50
24250;DHT22;12379;49.820;8.648;2023-07-16T13:05:19;26.70;55.60
24250;DHT22;12379;49.820;8.648;2023-07-16T13:07:45;26.70;56.30
24250;DHT22;12379;49.820;8.648;2023-07-16T13:10:11;26.70;56.60
24250;DHT22;12379;49.820;8.648;2023-07-16T13:12:36;26.70;56.00
24250;DHT22;12379;49.820;8.648;2023-07-16T13:15:02;26.70;55.60
24250;DHT22;12379;49.820;8.648;2023-07-16T13:17:28;26.50;55.30
24250;DHT22;12379;49.820;8.648;2023-07-16T13:19:53;26.30;55.40
24250;DHT22;12379;49.820;8.648;2023-07-16T13:22:19;26.40;55.60
24250;DHT22;12379;49.820;8.648;2023-07-16T13:24:44;26.60;55.00
24250;DHT22;12379;49.820;8.648;2023-07-16T13:27:19;26.70;55.10
24250;DHT22;12379;49.820;8.648;2023-07-16T13:29:45;26.70;55.10
24250;DHT22;12379;49.820;8.648;2023-07-16T13:32:11;26.70;55.40
24250;DHT22;12379;49.820;8.648;2023-07-16T13:34:36;26.70;55.00
24250;DHT22;12379;49.820;8.648;2023-07-16T13:37:02;26.60;55.80
24250;DHT22;12379;49.820;8.648;2023-07-16T13:39:28;26.60;55.80
24250;DHT22;12379;49.820;8.648;2023-07-16T13:41:57;26.70;56.10
24250;DHT22;12379;49.820;8.648;2023-07-16T13:44:22;26.70;55.40
24250;DHT22;12379;49.820;8.648;2023-07-16T13:46:48;26.60;55.50
24250;DHT22;12379;49.820;8.648;2023-07-16T13:49:14;26.40;55.90
24250;DHT22;12379;49.820;8.648;2023-07-16T13:51:39;26.70;55.80
24250;DHT22;12379;49.820;8.648;2023-07-16T13:54:05;26.80;56.00
24250;DHT22;12379;49.820;8.648;2023-07-16T13:56:31;26.90;55.30
24250;DHT22;12379;49.820;8.648;2023-07-16T13:58:56;27.00;55.30
24250;DHT22;12379;49.820;8.648;2023-07-16T14:01:22;26.90;55.50
24250;DHT22;12379;49.820;8.648;2023-07-16T14:03:48;26.80;55.20
24250;DHT22;12379;49.820;8.648;2023-07-16T14:06:14;26.60;55.70
24250;DHT22;12379;49.820;8.648;2023-07-16T14:08:39;26.80;55.60
24250;DHT22;12379;49.820;8.648;2023-07-16T14:11:05;26.80;55.40
24250;DHT22;12379;49.820;8.648;2023-07-16T14:13:31;26.80;55.30
24250;DHT22;12379;49.820;8.648;2023-07-16T14:15:56;26.90;55.10
24250;DHT22;12379;49.820;8.648;2023-07-16T14:18:22;27.00;55.00
24250;DHT22;12379;49.820;8.648;2023-07-16T14:20:47;27.00;55.60
24250;DHT22;12379;49.820;8.648;2023-07-16T14:23:13;27.20;55.30
24250;DHT22;12379;49.820;8.648;2023-07-16T14:25:39;27.20;54.40
24250;DHT22;12379;49.820;8.648;2023-07-16T14:28:04;27.10;54.20
24250;DHT22;12379;49.820;8.648;2023-07-16T14:30:30;27.00;54.80
24250;DHT22;12379;49.820;8.648;2023-07-16T14:32:55;27.20;55.10
24250;DHT22;12379;49.820;8.648;2023-07-16T14:35:21;27.10;54.30
24250;DHT22;12379;49.820;8.648;2023-07-16T14:37:47;27.20;54.10
24250;DHT22;12379;49.820;8.648;2023-07-16T14:40:13;27.10;53.70
24250;DHT22;12379;49.820;8.648;2023-07-16T14:42:39;27.30;54.40
24250;DHT22;12379;49.820;8.648;2023-07-16T14:45:05;27.60;53.80
24250;DHT22;12379;49.820;8.648;2023-07-16T14:47:33;27.50;53.70
24250;DHT22;12379;49.820;8.648;2023-07-16T14:49:59;27.20;53.80
24250;DHT22;12379;49.820;8.648;2023-07-16T14:52:24;27.20;54.30
24250;DHT22;12379;49.820;8.648;2023-07-16T14:54:50;27.10;54.20
24250;DHT22;12379;49.820;8.648;2023-07-16T14:57:15;27.30;54.20
24250;DHT22;12379;49.820;8.648;2023-07-16T14:59:41;27.40;53.40
24250;DHT22;12379;49.820;8.648;2023-07-16T15:02:07;27.40;53.40
24250;DHT22;12379;49.820;8.648;2023-07-16T15:04:32;27.50;53.70
24250;DHT22;12379;49.820;8.648;2023-07-16T15:06:58;27.60;52.80
24250;DHT22;12379;49.820;8.648;2023-07-16T15:09:26;27.30;53.30
24250;DHT22;12379;49.820;8.648;2023-07-16T15:11:52;27.10;53.70
24250;DHT22;12379;49.820;8.648;2023-07-16T15:14:18;26.80;54.40
24250;DHT22;12379;49.820;8.648;2023-07-16T15:16:43;26.80;54.10
24250;DHT22;12379;49.820;8.648;2023-07-16T15:19:09;26.60;54.70
24250;DHT22;12379;49.820;8.648;2023-07-16T15:21:35;26.90;54.90
24250;DHT22;12379;49.820;8.648;2023-07-16T15:24:08;27.20;54.10
24250;DHT22;12379;49.820;8.648;2023-07-16T15:26:33;27.30;53.30
24250;DHT22;12379;49.820;8.648;2023-07-16T15:28:59;27.40;53.00
24250;DHT22;12379;49.820;8.648;2023-07-16T15:31:27;27.40;51.80
24250;DHT22;12379;49.820;8.648;2023-07-16T15:33:56;27.40;51.50
24250;DHT22;12379;49.820;8.648;2023-07-16T15:36:25;27.20;52.10
24250;DHT22;12379;49.820;8.648;2023-07-16T15:38:54;27.20;53.60